sensor_id;sensor_type;location;lat;lon;timestamp;P1;durP1;ratioP1;P2;durP2;ratioP2
68256;SDS011;55069;51.568;4.656;2022-10-26T00:01:27;13.50;;;5.10;;
68256;SDS011;55069;51.568;4.656;2022-10-26T00:03:53;13.30;;;4.87;;
68256;SDS011;55069;51.568;4.656;2022-10-26T00:06:21;11.88;;;4.55;;
68256;SDS011;55069;51.568;4.656;2022-10-26T00:08:55;16.65;;;5.30;;
68256;SDS011;55069;51.568;4.656;2022-10-26T00:11:22;8.15;;;4.68;;
68256;SDS011;55069;51.568;4.656;2022-10-26T00:13:47;9.57;;;5.32;;
68256;SDS011;55069;51.568;4.656;2022-10-26T00:16:16;11.50;;;4.67;;
68256;SDS011;55069;51.568;4.656;2022-10-26T00:18:47;6.82;;;3.80;;
68256;SDS011;55069;51.568;4.656;2022-10-26T00:21:13;10.73;;;5.28;;
68256;SDS011;55069;51.568;4.656;2022-10-26T00:23:39;10.95;;;4.68;;
68256;SDS011;55069;51.568;4.656;2022-10-26T00:26:04;6.90;;;4.53;;
68256;SDS011;55069;51.568;4.656;2022-10-26T00:28:31;12.60;;;4.90;;
68256;SDS011;55069;51.568;4.656;2022-10-26T00:31:01;9.33;;;4.80;;
68256;SDS011;55069;51.568;4.656;2022-10-26T00:33:27;14.52;;;4.70;;
68256;SDS011;55069;51.568;4.656;2022-10-26T00:35:54;9.80;;;4.70;;
68256;SDS011;55069;51.568;4.656;2022-10-26T00:38:20;7.57;;;4.10;;
68256;SDS011;55069;51.568;4.656;2022-10-26T00:40:46;12.18;;;4.28;;
68256;SDS011;55069;51.568;4.656;2022-10-26T00:43:31;7.85;;;3.13;;
68256;SDS011;55069;51.568;4.656;2022-10-26T00:45:58;10.68;;;4.32;;
68256;SDS011;55069;51.568;4.656;2022-10-26T00:48:27;8.70;;;3.85;;
68256;SDS011;55069;51.568;4.656;2022-10-26T00:50:58;12.73;;;4.30;;
68256;SDS011;55069;51.568;4.656;2022-10-26T00:53:25;10.88;;;4.05;;
68256;SDS011;55069;51.568;4.656;2022-10-26T00:55:51;9.68;;;3.70;;
68256;SDS011;55069;51.568;4.656;2022-10-26T00:58:18;11.27;;;3.97;;
68256;SDS011;55069;51.568;4.656;2022-10-26T01:00:45;10.27;;;3.85;;
68256;SDS011;55069;51.568;4.656;2022-10-26T01:03:12;11.47;;;4.03;;
68256;SDS011;55069;51.568;4.656;2022-10-26T01:05:41;6.60;;;3.60;;
68256;SDS011;55069;51.568;4.656;2022-10-26T01:08:10;12.05;;;4.07;;
68256;SDS011;55069;51.568;4.656;2022-10-26T01:10:37;11.35;;;3.95;;
68256;SDS011;55069;51.568;4.656;2022-10-26T01:13:05;10.80;;;4.50;;
68256;SDS011;55069;51.568;4.656;2022-10-26T01:18:58;8.55;;;4.20;;
68256;SDS011;55069;51.568;4.656;2022-10-26T01:21:04;12.00;;;4.90;;
68256;SDS011;55069;51.568;4.656;2022-10-26T01:23:59;13.02;;;4.78;;
68256;SDS011;55069;51.568;4.656;2022-10-26T01:31:59;10.02;;;4.20;;
68256;SDS011;55069;51.568;4.656;2022-10-26T01:37:35;11.10;;;4.38;;
68256;SDS011;55069;51.568;4.656;2022-10-26T01:40:09;8.77;;;4.18;;
68256;SDS011;55069;51.568;4.656;2022-10-26T01:42:44;9.93;;;4.83;;
68256;SDS011;55069;51.568;4.656;2022-10-26T01:45:13;10.00;;;4.70;;
68256;SDS011;55069;51.568;4.656;2022-10-26T01:47:39;7.97;;;4.40;;
68256;SDS011;55069;51.568;4.656;2022-10-26T01:50:05;10.25;;;4.00;;
68256;SDS011;55069;51.568;4.656;2022-10-26T01:52:34;8.80;;;4.20;;
68256;SDS011;55069;51.568;4.656;2022-10-26T01:55:00;9.40;;;4.00;;
68256;SDS011;55069;51.568;4.656;2022-10-26T01:57:31;9.82;;;4.75;;
68256;SDS011;55069;51.568;4.656;2022-10-26T02:13:47;13.32;;;4.25;;
68256;SDS011;55069;51.568;4.656;2022-10-26T02:16:42;10.13;;;4.57;;
68256;SDS011;55069;51.568;4.656;2022-10-26T02:21:53;9.77;;;3.80;;
68256;SDS011;55069;51.568;4.656;2022-10-26T02:24:25;6.22;;;3.47;;
68256;SDS011;55069;51.568;4.656;2022-10-26T02:26:52;8.02;;;4.10;;
68256;SDS011;55069;51.568;4.656;2022-10-26T02:29:19;13.73;;;4.77;;
68256;SDS011;55069;51.568;4.656;2022-10-26T02:31:47;9.27;;;3.75;;
68256;SDS011;55069;51.568;4.656;2022-10-26T02:34:15;8.65;;;3.83;;
68256;SDS011;55069;51.568;4.656;2022-10-26T02:36:46;11.60;;;4.18;;
68256;SDS011;55069;51.568;4.656;2022-10-26T02:39:13;7.70;;;4.22;;
68256;SDS011;55069;51.568;4.656;2022-10-26T02:41:42;8.00;;;4.00;;
68256;SDS011;55069;51.568;4.656;2022-10-26T02:44:11;13.45;;;3.70;;
68256;SDS011;55069;51.568;4.656;2022-10-26T02:46:51;8.25;;;3.65;;
68256;SDS011;55069;51.568;4.656;2022-10-26T02:49:19;9.63;;;3.95;;
68256;SDS011;55069;51.568;4.656;2022-10-26T02:51:52;12.77;;;3.90;;
68256;SDS011;55069;51.568;4.656;2022-10-26T02:54:41;11.07;;;3.40;;
68256;SDS011;55069;51.568;4.656;2022-10-26T02:57:14;9.98;;;3.40;;
68256;SDS011;55069;51.568;4.656;2022-10-26T02:59:43;8.95;;;3.20;;
68256;SDS011;55069;51.568;4.656;2022-10-26T03:02:12;8.48;;;3.67;;
68256;SDS011;55069;51.568;4.656;2022-10-26T03:04:40;8.18;;;3.42;;
68256;SDS011;55069;51.568;4.656;2022-10-26T03:07:06;13.37;;;3.80;;
68256;SDS011;55069;51.568;4.656;2022-10-26T03:09:32;6.47;;;3.22;;
68256;SDS011;55069;51.568;4.656;2022-10-26T03:11:57;7.95;;;3.53;;
68256;SDS011;55069;51.568;4.656;2022-10-26T03:14:23;9.33;;;3.43;;
68256;SDS011;55069;51.568;4.656;2022-10-26T03:16:48;13.87;;;3.77;;
68256;SDS011;55069;51.568;4.656;2022-10-26T03:19:14;13.95;;;4.30;;
68256;SDS011;55069;51.568;4.656;2022-10-26T03:21:39;11.47;;;4.07;;
68256;SDS011;55069;51.568;4.656;2022-10-26T03:24:06;9.35;;;4.13;;
68256;SDS011;55069;51.568;4.656;2022-10-26T03:26:33;8.80;;;3.97;;
68256;SDS011;55069;51.568;4.656;2022-10-26T03:28:58;7.87;;;3.83;;
68256;SDS011;55069;51.568;4.656;2022-10-26T03:31:24;13.20;;;4.10;;
68256;SDS011;55069;51.568;4.656;2022-10-26T03:33:49;11.73;;;3.92;;
68256;SDS011;55069;51.568;4.656;2022-10-26T03:36:15;13.30;;;3.93;;
68256;SDS011;55069;51.568;4.656;2022-10-26T03:38:40;8.23;;;3.60;;
68256;SDS011;55069;51.568;4.656;2022-10-26T03:41:06;8.55;;;3.90;;
68256;SDS011;55069;51.568;4.656;2022-10-26T03:43:32;8.63;;;3.97;;
68256;SDS011;55069;51.568;4.656;2022-10-26T03:45:57;5.83;;;3.57;;
68256;SDS011;55069;51.568;4.656;2022-10-26T03:48:23;11.88;;;3.40;;
68256;SDS011;55069;51.568;4.656;2022-10-26T03:50:48;8.43;;;3.60;;
68256;SDS011;55069;51.568;4.656;2022-10-26T03:53:14;7.00;;;3.80;;
68256;SDS011;55069;51.568;4.656;2022-10-26T03:55:42;8.63;;;3.83;;
68256;SDS011;55069;51.568;4.656;2022-10-26T03:58:08;7.73;;;4.30;;
68256;SDS011;55069;51.568;4.656;2022-10-26T04:00:34;7.20;;;3.70;;
68256;SDS011;55069;51.568;4.656;2022-10-26T04:02:59;12.13;;;4.30;;
68256;SDS011;55069;51.568;4.656;2022-10-26T04:05:25;7.53;;;3.33;;
68256;SDS011;55069;51.568;4.656;2022-10-26T04:07:56;11.02;;;3.67;;
68256;SDS011;55069;51.568;4.656;2022-10-26T04:10:27;9.48;;;3.45;;
68256;SDS011;55069;51.568;4.656;2022-10-26T04:12:53;10.27;;;3.83;;
68256;SDS011;55069;51.568;4.656;2022-10-26T04:15:19;7.70;;;3.58;;
68256;SDS011;55069;51.568;4.656;2022-10-26T04:17:45;8.90;;;4.10;;
68256;SDS011;55069;51.568;4.656;2022-10-26T04:20:11;7.30;;;3.30;;
68256;SDS011;55069;51.568;4.656;2022-10-26T04:22:37;8.07;;;3.17;;
68256;SDS011;55069;51.568;4.656;2022-10-26T04:25:03;9.75;;;3.85;;
68256;SDS011;55069;51.568;4.656;2022-10-26T04:27:29;9.13;;;3.95;;
68256;SDS011;55069;51.568;4.656;2022-10-26T04:29:55;7.97;;;3.10;;
68256;SDS011;55069;51.568;4.656;2022-10-26T04:32:21;7.43;;;3.57;;
68256;SDS011;55069;51.568;4.656;2022-10-26T04:34:46;11.18;;;3.85;;
68256;SDS011;55069;51.568;4.656;2022-10-26T04:37:12;10.30;;;3.47;;
68256;SDS011;55069;51.568;4.656;2022-10-26T04:39:37;10.10;;;3.53;;
68256;SDS011;55069;51.568;4.656;2022-10-26T04:42:03;8.15;;;3.40;;
68256;SDS011;55069;51.568;4.656;2022-10-26T04:44:28;6.50;;;3.27;;
68256;SDS011;55069;51.568;4.656;2022-10-26T04:46:54;12.13;;;3.67;;
68256;SDS011;55069;51.568;4.656;2022-10-26T04:49:20;8.77;;;3.00;;
68256;SDS011;55069;51.568;4.656;2022-10-26T04:51:45;8.57;;;3.30;;
68256;SDS011;55069;51.568;4.656;2022-10-26T04:54:11;7.33;;;3.27;;
68256;SDS011;55069;51.568;4.656;2022-10-26T04:56:36;9.93;;;3.25;;
68256;SDS011;55069;51.568;4.656;2022-10-26T04:59:02;7.73;;;3.50;;
68256;SDS011;55069;51.568;4.656;2022-10-26T05:01:27;5.97;;;3.00;;
68256;SDS011;55069;51.568;4.656;2022-10-26T05:03:55;13.52;;;4.00;;
68256;SDS011;55069;51.568;4.656;2022-10-26T05:06:20;8.97;;;3.43;;
68256;SDS011;55069;51.568;4.656;2022-10-26T05:08:46;11.20;;;3.58;;
68256;SDS011;55069;51.568;4.656;2022-10-26T05:11:12;8.00;;;3.80;;
68256;SDS011;55069;51.568;4.656;2022-10-26T05:13:38;7.50;;;3.20;;
68256;SDS011;55069;51.568;4.656;2022-10-26T05:16:03;8.07;;;3.30;;
68256;SDS011;55069;51.568;4.656;2022-10-26T05:18:29;9.52;;;3.17;;
68256;SDS011;55069;51.568;4.656;2022-10-26T05:20:55;10.60;;;3.93;;
68256;SDS011;55069;51.568;4.656;2022-10-26T05:23:20;7.20;;;3.30;;
68256;SDS011;55069;51.568;4.656;2022-10-26T05:25:46;10.32;;;4.10;;
68256;SDS011;55069;51.568;4.656;2022-10-26T05:28:13;8.10;;;3.40;;
68256;SDS011;55069;51.568;4.656;2022-10-26T05:30:40;6.40;;;3.42;;
68256;SDS011;55069;51.568;4.656;2022-10-26T05:33:07;10.77;;;3.72;;
68256;SDS011;55069;51.568;4.656;2022-10-26T05:35:34;12.38;;;2.97;;
68256;SDS011;55069;51.568;4.656;2022-10-26T05:38:10;10.43;;;3.58;;
68256;SDS011;55069;51.568;4.656;2022-10-26T05:40:45;11.87;;;3.40;;
68256;SDS011;55069;51.568;4.656;2022-10-26T05:43:14;8.38;;;3.67;;
68256;SDS011;55069;51.568;4.656;2022-10-26T05:45:40;10.05;;;3.20;;
68256;SDS011;55069;51.568;4.656;2022-10-26T05:48:05;8.40;;;3.43;;
68256;SDS011;55069;51.568;4.656;2022-10-26T05:50:31;6.13;;;2.83;;
68256;SDS011;55069;51.568;4.656;2022-10-26T05:52:56;12.40;;;3.30;;
68256;SDS011;55069;51.568;4.656;2022-10-26T05:55:22;9.97;;;3.10;;
68256;SDS011;55069;51.568;4.656;2022-10-26T05:57:48;6.57;;;3.30;;
68256;SDS011;55069;51.568;4.656;2022-10-26T06:05:54;7.65;;;3.25;;
68256;SDS011;55069;51.568;4.656;2022-10-26T06:08:22;10.43;;;3.28;;
68256;SDS011;55069;51.568;4.656;2022-10-26T06:10:49;6.68;;;2.95;;
68256;SDS011;55069;51.568;4.656;2022-10-26T06:13:15;7.30;;;4.20;;
68256;SDS011;55069;51.568;4.656;2022-10-26T06:21:54;6.65;;;3.03;;
68256;SDS011;55069;51.568;4.656;2022-10-26T06:32:30;13.50;;;3.40;;
68256;SDS011;55069;51.568;4.656;2022-10-26T06:37:35;6.67;;;3.70;;
68256;SDS011;55069;51.568;4.656;2022-10-26T06:40:02;8.52;;;2.85;;
68256;SDS011;55069;51.568;4.656;2022-10-26T06:42:30;7.15;;;3.20;;
68256;SDS011;55069;51.568;4.656;2022-10-26T06:44:56;6.05;;;3.35;;
68256;SDS011;55069;51.568;4.656;2022-10-26T06:50:49;10.02;;;2.90;;
68256;SDS011;55069;51.568;4.656;2022-10-26T06:53:27;11.30;;;3.35;;
68256;SDS011;55069;51.568;4.656;2022-10-26T06:55:58;6.28;;;3.10;;
68256;SDS011;55069;51.568;4.656;2022-10-26T06:58:26;14.05;;;2.75;;
68256;SDS011;55069;51.568;4.656;2022-10-26T07:00:54;7.10;;;2.90;;
68256;SDS011;55069;51.568;4.656;2022-10-26T07:03:20;4.85;;;2.72;;
68256;SDS011;55069;51.568;4.656;2022-10-26T07:05:46;8.75;;;2.70;;
68256;SDS011;55069;51.568;4.656;2022-10-26T07:08:12;7.80;;;2.80;;
68256;SDS011;55069;51.568;4.656;2022-10-26T07:10:38;5.97;;;2.80;;
68256;SDS011;55069;51.568;4.656;2022-10-26T07:13:04;6.85;;;2.95;;
68256;SDS011;55069;51.568;4.656;2022-10-26T07:15:31;8.25;;;2.88;;
68256;SDS011;55069;51.568;4.656;2022-10-26T07:17:57;9.70;;;2.63;;
68256;SDS011;55069;51.568;4.656;2022-10-26T07:20:23;9.93;;;2.83;;
68256;SDS011;55069;51.568;4.656;2022-10-26T07:22:52;4.53;;;2.47;;
68256;SDS011;55069;51.568;4.656;2022-10-26T07:25:19;6.05;;;2.70;;
68256;SDS011;55069;51.568;4.656;2022-10-26T07:27:44;5.93;;;2.40;;
68256;SDS011;55069;51.568;4.656;2022-10-26T07:30:10;8.75;;;2.30;;
68256;SDS011;55069;51.568;4.656;2022-10-26T07:32:36;8.45;;;2.35;;
68256;SDS011;55069;51.568;4.656;2022-10-26T07:35:02;7.17;;;2.30;;
68256;SDS011;55069;51.568;4.656;2022-10-26T07:37:27;6.45;;;2.40;;
68256;SDS011;55069;51.568;4.656;2022-10-26T07:39:53;6.57;;;2.60;;
68256;SDS011;55069;51.568;4.656;2022-10-26T07:42:18;8.33;;;2.50;;
68256;SDS011;55069;51.568;4.656;2022-10-26T07:44:44;6.73;;;2.50;;
68256;SDS011;55069;51.568;4.656;2022-10-26T07:47:09;7.57;;;2.20;;
68256;SDS011;55069;51.568;4.656;2022-10-26T07:49:35;6.93;;;2.90;;
68256;SDS011;55069;51.568;4.656;2022-10-26T07:52:01;9.25;;;2.72;;
68256;SDS011;55069;51.568;4.656;2022-10-26T07:54:26;8.83;;;2.53;;
68256;SDS011;55069;51.568;4.656;2022-10-26T07:56:52;5.93;;;2.43;;
68256;SDS011;55069;51.568;4.656;2022-10-26T07:59:17;7.78;;;3.05;;
68256;SDS011;55069;51.568;4.656;2022-10-26T08:01:43;3.93;;;1.90;;
68256;SDS011;55069;51.568;4.656;2022-10-26T08:04:09;6.35;;;2.25;;
68256;SDS011;55069;51.568;4.656;2022-10-26T08:06:35;7.83;;;2.53;;
68256;SDS011;55069;51.568;4.656;2022-10-26T08:09:00;9.60;;;2.15;;
68256;SDS011;55069;51.568;4.656;2022-10-26T08:11:26;9.10;;;2.40;;
68256;SDS011;55069;51.568;4.656;2022-10-26T08:13:52;6.57;;;2.30;;
68256;SDS011;55069;51.568;4.656;2022-10-26T08:16:19;7.43;;;2.35;;
68256;SDS011;55069;51.568;4.656;2022-10-26T08:18:49;6.53;;;2.13;;
68256;SDS011;55069;51.568;4.656;2022-10-26T08:21:16;5.78;;;1.92;;
68256;SDS011;55069;51.568;4.656;2022-10-26T08:23:42;5.60;;;2.23;;
68256;SDS011;55069;51.568;4.656;2022-10-26T08:26:08;5.88;;;1.95;;
68256;SDS011;55069;51.568;4.656;2022-10-26T08:28:37;5.00;;;2.10;;
68256;SDS011;55069;51.568;4.656;2022-10-26T08:31:04;7.45;;;1.98;;
68256;SDS011;55069;51.568;4.656;2022-10-26T08:33:30;5.75;;;2.00;;
68256;SDS011;55069;51.568;4.656;2022-10-26T08:35:56;6.93;;;2.93;;
68256;SDS011;55069;51.568;4.656;2022-10-26T08:38:25;5.85;;;1.92;;
68256;SDS011;55069;51.568;4.656;2022-10-26T08:40:51;6.55;;;2.35;;
68256;SDS011;55069;51.568;4.656;2022-10-26T08:43:19;5.63;;;1.63;;
68256;SDS011;55069;51.568;4.656;2022-10-26T08:45:58;5.40;;;1.73;;
68256;SDS011;55069;51.568;4.656;2022-10-26T08:48:31;6.68;;;2.15;;
68256;SDS011;55069;51.568;4.656;2022-10-26T08:51:02;7.78;;;2.22;;
68256;SDS011;55069;51.568;4.656;2022-10-26T08:56:26;6.63;;;2.23;;
68256;SDS011;55069;51.568;4.656;2022-10-26T08:59:00;7.25;;;2.45;;
68256;SDS011;55069;51.568;4.656;2022-10-26T09:01:31;7.28;;;2.05;;
68256;SDS011;55069;51.568;4.656;2022-10-26T09:03:58;7.07;;;2.30;;
68256;SDS011;55069;51.568;4.656;2022-10-26T09:09:12;8.63;;;2.30;;
68256;SDS011;55069;51.568;4.656;2022-10-26T09:12:04;8.77;;;2.58;;
68256;SDS011;55069;51.568;4.656;2022-10-26T09:17:21;6.80;;;2.50;;
68256;SDS011;55069;51.568;4.656;2022-10-26T09:25:38;5.70;;;2.35;;
68256;SDS011;55069;51.568;4.656;2022-10-26T09:28:04;6.47;;;2.60;;
68256;SDS011;55069;51.568;4.656;2022-10-26T09:30:38;12.15;;;3.33;;
68256;SDS011;55069;51.568;4.656;2022-10-26T09:33:07;10.77;;;2.60;;
68256;SDS011;55069;51.568;4.656;2022-10-26T09:35:45;9.25;;;2.65;;
68256;SDS011;55069;51.568;4.656;2022-10-26T09:43:17;8.52;;;3.33;;
68256;SDS011;55069;51.568;4.656;2022-10-26T09:45:49;8.90;;;2.50;;
68256;SDS011;55069;51.568;4.656;2022-10-26T09:48:35;10.18;;;2.38;;
68256;SDS011;55069;51.568;4.656;2022-10-26T09:51:05;5.72;;;2.40;;
68256;SDS011;55069;51.568;4.656;2022-10-26T09:53:31;5.93;;;2.30;;
68256;SDS011;55069;51.568;4.656;2022-10-26T09:56:02;6.20;;;2.53;;
68256;SDS011;55069;51.568;4.656;2022-10-26T09:58:31;9.27;;;2.10;;
68256;SDS011;55069;51.568;4.656;2022-10-26T10:01:00;9.38;;;2.67;;
68256;SDS011;55069;51.568;4.656;2022-10-26T10:03:27;5.97;;;3.03;;
68256;SDS011;55069;51.568;4.656;2022-10-26T10:06:12;8.05;;;3.25;;
68256;SDS011;55069;51.568;4.656;2022-10-26T10:08:42;8.27;;;3.65;;
68256;SDS011;55069;51.568;4.656;2022-10-26T10:11:35;6.65;;;3.33;;
68256;SDS011;55069;51.568;4.656;2022-10-26T10:14:06;10.20;;;4.00;;
68256;SDS011;55069;51.568;4.656;2022-10-26T10:16:33;13.40;;;4.27;;
68256;SDS011;55069;51.568;4.656;2022-10-26T10:19:00;8.02;;;4.07;;
68256;SDS011;55069;51.568;4.656;2022-10-26T10:21:35;9.80;;;4.05;;
68256;SDS011;55069;51.568;4.656;2022-10-26T10:24:19;8.98;;;4.30;;
68256;SDS011;55069;51.568;4.656;2022-10-26T10:26:54;8.20;;;3.88;;
68256;SDS011;55069;51.568;4.656;2022-10-26T10:29:24;6.30;;;3.60;;
68256;SDS011;55069;51.568;4.656;2022-10-26T10:31:57;6.97;;;3.28;;
68256;SDS011;55069;51.568;4.656;2022-10-26T10:34:24;8.13;;;3.22;;
68256;SDS011;55069;51.568;4.656;2022-10-26T10:36:50;10.15;;;3.00;;
68256;SDS011;55069;51.568;4.656;2022-10-26T10:39:50;7.67;;;2.80;;
68256;SDS011;55069;51.568;4.656;2022-10-26T10:42:22;9.90;;;2.75;;
68256;SDS011;55069;51.568;4.656;2022-10-26T10:44:54;7.20;;;2.97;;
68256;SDS011;55069;51.568;4.656;2022-10-26T10:47:22;8.63;;;3.20;;
68256;SDS011;55069;51.568;4.656;2022-10-26T10:49:53;6.57;;;3.10;;
68256;SDS011;55069;51.568;4.656;2022-10-26T10:52:28;6.27;;;3.10;;
68256;SDS011;55069;51.568;4.656;2022-10-26T10:55:37;6.47;;;3.13;;
68256;SDS011;55069;51.568;4.656;2022-10-26T10:57:52;7.18;;;3.00;;
68256;SDS011;55069;51.568;4.656;2022-10-26T11:00:53;9.02;;;2.65;;
68256;SDS011;55069;51.568;4.656;2022-10-26T11:03:28;7.30;;;2.80;;
68256;SDS011;55069;51.568;4.656;2022-10-26T11:05:59;7.83;;;2.70;;
68256;SDS011;55069;51.568;4.656;2022-10-26T11:08:32;9.13;;;3.45;;
68256;SDS011;55069;51.568;4.656;2022-10-26T11:16:45;9.82;;;3.58;;
68256;SDS011;55069;51.568;4.656;2022-10-26T11:21:55;11.05;;;3.17;;
68256;SDS011;55069;51.568;4.656;2022-10-26T11:27:01;6.28;;;2.45;;
68256;SDS011;55069;51.568;4.656;2022-10-26T11:33:10;6.47;;;2.33;;
68256;SDS011;55069;51.568;4.656;2022-10-26T11:40:52;5.22;;;1.80;;
68256;SDS011;55069;51.568;4.656;2022-10-26T11:43:39;6.78;;;1.70;;
68256;SDS011;55069;51.568;4.656;2022-10-26T11:46:25;7.97;;;1.90;;
68256;SDS011;55069;51.568;4.656;2022-10-26T11:53:55;5.10;;;1.60;;
68256;SDS011;55069;51.568;4.656;2022-10-26T11:56:32;8.43;;;1.80;;
68256;SDS011;55069;51.568;4.656;2022-10-26T11:59:02;4.72;;;1.17;;
68256;SDS011;55069;51.568;4.656;2022-10-26T12:01:29;6.07;;;1.50;;
68256;SDS011;55069;51.568;4.656;2022-10-26T12:03:56;4.73;;;1.40;;
68256;SDS011;55069;51.568;4.656;2022-10-26T12:06:26;9.00;;;1.80;;
68256;SDS011;55069;51.568;4.656;2022-10-26T12:09:38;5.55;;;1.50;;
68256;SDS011;55069;51.568;4.656;2022-10-26T12:11:57;8.88;;;1.90;;
68256;SDS011;55069;51.568;4.656;2022-10-26T12:17:42;5.30;;;1.20;;
68256;SDS011;55069;51.568;4.656;2022-10-26T12:22:46;5.63;;;1.48;;
68256;SDS011;55069;51.568;4.656;2022-10-26T12:30:13;5.72;;;1.55;;
68256;SDS011;55069;51.568;4.656;2022-10-26T12:48:38;4.25;;;1.50;;
68256;SDS011;55069;51.568;4.656;2022-10-26T12:53:55;6.33;;;1.20;;
68256;SDS011;55069;51.568;4.656;2022-10-26T12:56:28;6.03;;;1.15;;
68256;SDS011;55069;51.568;4.656;2022-10-26T13:01:43;4.13;;;1.30;;
68256;SDS011;55069;51.568;4.656;2022-10-26T13:10:26;4.63;;;1.42;;
68256;SDS011;55069;51.568;4.656;2022-10-26T13:12:52;9.32;;;1.60;;
68256;SDS011;55069;51.568;4.656;2022-10-26T13:17:51;7.90;;;1.60;;
68256;SDS011;55069;51.568;4.656;2022-10-26T13:20:23;6.82;;;1.10;;
68256;SDS011;55069;51.568;4.656;2022-10-26T13:22:49;5.83;;;1.33;;
68256;SDS011;55069;51.568;4.656;2022-10-26T13:33:20;6.40;;;1.40;;
68256;SDS011;55069;51.568;4.656;2022-10-26T13:35:50;5.25;;;1.40;;
68256;SDS011;55069;51.568;4.656;2022-10-26T13:38:19;5.47;;;1.30;;
68256;SDS011;55069;51.568;4.656;2022-10-26T13:40:47;4.53;;;1.30;;
68256;SDS011;55069;51.568;4.656;2022-10-26T13:43:21;4.85;;;1.15;;
68256;SDS011;55069;51.568;4.656;2022-10-26T13:45:53;6.68;;;1.25;;
68256;SDS011;55069;51.568;4.656;2022-10-26T13:48:40;5.57;;;1.35;;
68256;SDS011;55069;51.568;4.656;2022-10-26T13:51:10;3.75;;;1.20;;
68256;SDS011;55069;51.568;4.656;2022-10-26T13:53:46;5.70;;;1.27;;
68256;SDS011;55069;51.568;4.656;2022-10-26T14:01:35;7.63;;;1.38;;
68256;SDS011;55069;51.568;4.656;2022-10-26T14:07:02;8.10;;;1.42;;
68256;SDS011;55069;51.568;4.656;2022-10-26T14:09:27;4.13;;;1.00;;
68256;SDS011;55069;51.568;4.656;2022-10-26T14:11:55;7.93;;;1.38;;
68256;SDS011;55069;51.568;4.656;2022-10-26T14:14:24;6.18;;;1.27;;
68256;SDS011;55069;51.568;4.656;2022-10-26T14:16:52;6.53;;;1.33;;
68256;SDS011;55069;51.568;4.656;2022-10-26T14:21:56;12.20;;;1.40;;
68256;SDS011;55069;51.568;4.656;2022-10-26T14:24:23;6.47;;;1.15;;
68256;SDS011;55069;51.568;4.656;2022-10-26T14:26:53;8.63;;;1.52;;
68256;SDS011;55069;51.568;4.656;2022-10-26T14:29:19;5.17;;;1.23;;
68256;SDS011;55069;51.568;4.656;2022-10-26T14:31:47;7.50;;;1.10;;
68256;SDS011;55069;51.568;4.656;2022-10-26T14:34:14;5.88;;;1.45;;
68256;SDS011;55069;51.568;4.656;2022-10-26T14:39:41;10.82;;;1.70;;
68256;SDS011;55069;51.568;4.656;2022-10-26T14:42:13;5.38;;;0.93;;
68256;SDS011;55069;51.568;4.656;2022-10-26T14:44:49;10.38;;;1.92;;
68256;SDS011;55069;51.568;4.656;2022-10-26T14:47:27;8.80;;;1.43;;
68256;SDS011;55069;51.568;4.656;2022-10-26T14:49:55;5.93;;;0.93;;
68256;SDS011;55069;51.568;4.656;2022-10-26T14:52:23;7.13;;;1.35;;
68256;SDS011;55069;51.568;4.656;2022-10-26T14:55:10;15.02;;;6.80;;
68256;SDS011;55069;51.568;4.656;2022-10-26T14:57:39;4.35;;;1.58;;
68256;SDS011;55069;51.568;4.656;2022-10-26T15:00:13;5.63;;;1.00;;
68256;SDS011;55069;51.568;4.656;2022-10-26T15:02:40;10.20;;;1.50;;
68256;SDS011;55069;51.568;4.656;2022-10-26T15:07:49;9.07;;;1.83;;
68256;SDS011;55069;51.568;4.656;2022-10-26T15:15:56;6.10;;;1.33;;
68256;SDS011;55069;51.568;4.656;2022-10-26T15:18:32;7.50;;;1.70;;
68256;SDS011;55069;51.568;4.656;2022-10-26T15:21:00;5.53;;;1.40;;
68256;SDS011;55069;51.568;4.656;2022-10-26T15:23:26;5.63;;;1.43;;
68256;SDS011;55069;51.568;4.656;2022-10-26T15:25:58;5.82;;;1.52;;
68256;SDS011;55069;51.568;4.656;2022-10-26T15:31:01;7.43;;;1.23;;
68256;SDS011;55069;51.568;4.656;2022-10-26T15:33:29;7.88;;;1.30;;
68256;SDS011;55069;51.568;4.656;2022-10-26T15:36:12;5.50;;;1.30;;
68256;SDS011;55069;51.568;4.656;2022-10-26T15:38:40;5.22;;;1.85;;
68256;SDS011;55069;51.568;4.656;2022-10-26T15:43:47;4.90;;;2.10;;
68256;SDS011;55069;51.568;4.656;2022-10-26T15:46:14;6.75;;;1.63;;
68256;SDS011;55069;51.568;4.656;2022-10-26T15:48:40;3.70;;;1.60;;
68256;SDS011;55069;51.568;4.656;2022-10-26T15:51:09;8.60;;;2.08;;
68256;SDS011;55069;51.568;4.656;2022-10-26T15:53:36;7.40;;;1.90;;
68256;SDS011;55069;51.568;4.656;2022-10-26T15:56:02;7.30;;;1.30;;
68256;SDS011;55069;51.568;4.656;2022-10-26T15:58:34;5.40;;;1.30;;
68256;SDS011;55069;51.568;4.656;2022-10-26T16:01:01;7.13;;;1.67;;
68256;SDS011;55069;51.568;4.656;2022-10-26T16:03:26;8.63;;;1.50;;
68256;SDS011;55069;51.568;4.656;2022-10-26T16:05:55;7.70;;;1.27;;
68256;SDS011;55069;51.568;4.656;2022-10-26T16:08:22;8.68;;;1.38;;
68256;SDS011;55069;51.568;4.656;2022-10-26T16:10:51;4.83;;;1.20;;
68256;SDS011;55069;51.568;4.656;2022-10-26T16:13:17;5.38;;;1.20;;
68256;SDS011;55069;51.568;4.656;2022-10-26T16:15:43;6.32;;;1.52;;
68256;SDS011;55069;51.568;4.656;2022-10-26T16:18:09;7.67;;;1.83;;
68256;SDS011;55069;51.568;4.656;2022-10-26T16:20:35;6.00;;;1.27;;
68256;SDS011;55069;51.568;4.656;2022-10-26T16:23:00;6.53;;;1.60;;
68256;SDS011;55069;51.568;4.656;2022-10-26T16:25:31;5.68;;;1.30;;
68256;SDS011;55069;51.568;4.656;2022-10-26T16:27:59;7.25;;;1.30;;
68256;SDS011;55069;51.568;4.656;2022-10-26T16:30:25;6.85;;;1.60;;
68256;SDS011;55069;51.568;4.656;2022-10-26T16:32:54;6.47;;;1.53;;
68256;SDS011;55069;51.568;4.656;2022-10-26T16:35:19;7.35;;;1.20;;
68256;SDS011;55069;51.568;4.656;2022-10-26T16:37:45;5.57;;;1.43;;
68256;SDS011;55069;51.568;4.656;2022-10-26T16:40:10;4.22;;;1.45;;
68256;SDS011;55069;51.568;4.656;2022-10-26T16:42:36;6.55;;;1.33;;
68256;SDS011;55069;51.568;4.656;2022-10-26T16:45:07;7.65;;;1.98;;
68256;SDS011;55069;51.568;4.656;2022-10-26T16:47:36;5.95;;;1.38;;
68256;SDS011;55069;51.568;4.656;2022-10-26T16:50:04;7.13;;;1.60;;
68256;SDS011;55069;51.568;4.656;2022-10-26T16:52:35;7.03;;;2.38;;
68256;SDS011;55069;51.568;4.656;2022-10-26T16:55:02;7.65;;;1.88;;
68256;SDS011;55069;51.568;4.656;2022-10-26T16:57:29;4.97;;;1.75;;
68256;SDS011;55069;51.568;4.656;2022-10-26T16:59:55;6.47;;;1.80;;
68256;SDS011;55069;51.568;4.656;2022-10-26T17:02:22;10.60;;;1.88;;
68256;SDS011;55069;51.568;4.656;2022-10-26T17:04:47;8.73;;;1.52;;
68256;SDS011;55069;51.568;4.656;2022-10-26T17:07:13;7.57;;;2.10;;
68256;SDS011;55069;51.568;4.656;2022-10-26T17:09:38;5.80;;;1.70;;
68256;SDS011;55069;51.568;4.656;2022-10-26T17:12:04;7.03;;;2.08;;
68256;SDS011;55069;51.568;4.656;2022-10-26T17:14:30;8.20;;;2.58;;
68256;SDS011;55069;51.568;4.656;2022-10-26T17:16:57;11.52;;;2.55;;
68256;SDS011;55069;51.568;4.656;2022-10-26T17:19:22;8.45;;;2.17;;
68256;SDS011;55069;51.568;4.656;2022-10-26T17:21:48;8.43;;;2.00;;
68256;SDS011;55069;51.568;4.656;2022-10-26T17:24:13;13.75;;;6.60;;
68256;SDS011;55069;51.568;4.656;2022-10-26T17:26:39;9.77;;;4.23;;
68256;SDS011;55069;51.568;4.656;2022-10-26T17:29:05;5.72;;;2.67;;
68256;SDS011;55069;51.568;4.656;2022-10-26T17:31:31;5.88;;;2.05;;
68256;SDS011;55069;51.568;4.656;2022-10-26T17:33:56;7.90;;;2.17;;
68256;SDS011;55069;51.568;4.656;2022-10-26T17:36:22;7.70;;;2.50;;
68256;SDS011;55069;51.568;4.656;2022-10-26T17:38:50;7.40;;;2.97;;
68256;SDS011;55069;51.568;4.656;2022-10-26T17:41:18;9.45;;;2.70;;
68256;SDS011;55069;51.568;4.656;2022-10-26T17:43:45;11.43;;;2.73;;
68256;SDS011;55069;51.568;4.656;2022-10-26T17:46:13;11.13;;;2.47;;
68256;SDS011;55069;51.568;4.656;2022-10-26T17:48:43;7.43;;;2.60;;
68256;SDS011;55069;51.568;4.656;2022-10-26T17:51:13;5.45;;;1.90;;